createdAt,value
2018-09-05T00:00:19.286Z,25.03
2018-09-05T00:03:52.776Z,25.00
2018-09-05T00:07:26.011Z,26.47
2018-09-05T00:10:59.319Z,27.27
2018-09-05T00:14:32.544Z,25.80
2018-09-05T00:18:05.781Z,25.57
2018-09-05T00:21:39.028Z,24.80
2018-09-05T00:25:12.256Z,26.80
2018-09-05T00:28:45.487Z,25.63
2018-09-05T00:32:18.712Z,27.80
2018-09-05T00:35:51.961Z,24.27
2018-09-05T00:39:25.918Z,26.23
2018-09-05T00:42:59.146Z,24.03
2018-09-05T00:46:32.375Z,22.97
2018-09-05T00:50:06.013Z,28.57
2018-09-05T00:53:39.239Z,25.07
2018-09-05T00:57:12.480Z,25.70
2018-09-05T01:00:45.705Z,29.90
2018-09-05T01:04:18.936Z,26.30
2018-09-05T01:07:52.172Z,22.77
2018-09-05T01:11:25.404Z,27.37
2018-09-05T01:14:58.622Z,25.00
2018-09-05T01:18:31.844Z,25.07
2018-09-05T01:22:05.075Z,23.87
2018-09-05T01:25:38.318Z,24.77
2018-09-05T01:29:11.643Z,24.90
2018-09-05T01:32:44.875Z,23.03
2018-09-05T01:36:18.927Z,24.87
2018-09-05T01:39:52.787Z,25.80
2018-09-05T01:43:26.049Z,21.57
2018-09-05T01:46:59.280Z,23.97
2018-09-05T01:50:37.819Z,23.40
2018-09-05T01:54:11.077Z,25.07
2018-09-05T01:57:44.300Z,23.90
2018-09-05T02:01:17.539Z,23.50
2018-09-05T02:04:50.749Z,23.10
2018-09-05T02:08:24.019Z,24.80
2018-09-05T02:11:57.200Z,23.83
2018-09-05T02:15:30.658Z,25.10
2018-09-05T02:19:03.884Z,28.90
2018-09-05T02:22:37.123Z,27.80
2018-09-05T02:26:10.347Z,30.87
2018-09-05T02:29:43.563Z,32.63
2018-09-05T02:33:16.786Z,35.20
2018-09-05T02:36:50.018Z,27.30
2018-09-05T02:40:23.305Z,30.80
2018-09-05T02:44:01.880Z,32.23
2018-09-05T02:47:35.200Z,33.47
2018-09-05T02:51:08.408Z,29.80
2018-09-05T02:54:41.632Z,31.27
2018-09-05T02:58:14.843Z,32.50
2018-09-05T03:01:48.068Z,34.27
2018-09-05T03:05:21.283Z,33.77
2018-09-05T03:08:54.515Z,31.87
2018-09-05T03:12:27.725Z,36.97
2018-09-05T03:16:00.952Z,33.60
2018-09-05T03:19:34.166Z,35.80
2018-09-05T03:23:07.403Z,38.67
2018-09-05T03:26:40.620Z,36.93
2018-09-05T03:30:13.851Z,44.37
2018-09-05T03:33:47.056Z,36.60
2018-09-05T03:37:20.291Z,36.53
2018-09-05T03:40:53.515Z,40.13
2018-09-05T03:44:26.736Z,37.87
2018-09-05T03:47:59.964Z,35.80
2018-09-05T03:51:33.167Z,41.80
2018-09-05T03:55:06.550Z,40.60
2018-09-05T03:58:39.772Z,43.00
2018-09-05T04:02:12.996Z,44.37
2018-09-05T04:05:46.221Z,44.33
2018-09-05T04:09:19.468Z,38.93
2018-09-05T04:12:52.691Z,43.80
2018-09-05T04:16:25.915Z,42.60
2018-09-05T04:19:59.208Z,41.60
2018-09-05T04:23:37.499Z,38.23
2018-09-05T04:27:10.747Z,39.03
2018-09-05T04:30:43.976Z,42.23
2018-09-05T04:34:17.195Z,35.47
2018-09-05T04:37:50.431Z,43.30
2018-09-05T04:41:23.675Z,33.60
2018-09-05T04:44:56.911Z,32.23
2018-09-05T04:48:30.184Z,34.33
2018-09-05T04:52:03.424Z,40.43
2018-09-05T04:55:36.655Z,43.87
2018-09-05T04:59:09.928Z,35.20
2018-09-05T05:02:43.143Z,39.60
2018-09-05T05:06:16.817Z,37.67
2018-09-05T05:09:50.055Z,39.00
2018-09-05T05:13:23.279Z,35.60
2018-09-05T05:16:56.503Z,34.83
2018-09-05T05:20:29.736Z,33.60
2018-09-05T05:24:02.985Z,32.70
2018-09-05T05:27:36.203Z,34.37
2018-09-05T05:31:09.424Z,35.63
2018-09-05T05:34:42.668Z,34.00
2018-09-05T05:38:15.920Z,29.60
2018-09-05T05:41:49.147Z,48.57
2018-09-05T05:45:22.384Z,36.87
2018-09-05T05:48:55.631Z,30.80
2018-09-05T05:52:29.201Z,33.87
2018-09-05T05:56:02.547Z,40.10
2018-09-05T05:59:35.787Z,37.63
2018-09-05T06:03:09.016Z,38.40
2018-09-05T06:06:42.237Z,35.63
2018-09-05T06:10:15.471Z,38.80
2018-09-05T06:13:48.711Z,38.70
2018-09-05T06:17:21.999Z,41.37
2018-09-05T06:20:55.258Z,39.23
2018-09-05T06:24:28.483Z,38.40
2018-09-05T06:28:01.704Z,34.23
2018-09-05T06:31:34.921Z,41.67
2018-09-05T06:35:08.207Z,38.90
2018-09-05T06:38:41.531Z,35.27
2018-09-05T06:42:15.054Z,32.83
2018-09-05T06:45:48.277Z,36.63
2018-09-05T06:49:21.498Z,37.30
2018-09-05T06:52:54.748Z,36.20
2018-09-05T06:56:27.962Z,38.63
2018-09-05T07:00:01.240Z,38.70
2018-09-05T07:03:34.532Z,35.73
2018-09-05T07:07:07.774Z,33.83
2018-09-05T07:10:40.964Z,34.40
2018-09-05T07:14:14.213Z,37.23
2018-09-05T07:17:47.429Z,33.07
2018-09-05T07:21:20.689Z,36.97
2018-09-05T07:24:53.901Z,36.20
2018-09-05T07:28:27.136Z,37.30
2018-09-05T07:32:00.733Z,38.30
2018-09-05T07:35:33.961Z,38.00
2018-09-05T07:39:08.612Z,40.37
2018-09-05T07:42:41.830Z,41.17
2018-09-05T07:46:15.043Z,41.80
2018-09-05T07:49:48.267Z,41.40
2018-09-05T07:53:21.495Z,39.30
2018-09-05T07:56:54.713Z,37.97
2018-09-05T08:00:27.917Z,37.87
2018-09-05T08:04:01.149Z,35.10
2018-09-05T08:07:34.420Z,36.97
2018-09-05T08:11:07.637Z,42.13
2018-09-05T08:14:40.858Z,41.97
2018-09-05T08:18:14.136Z,45.50
2018-09-05T08:21:47.341Z,47.10
2018-09-05T08:25:20.556Z,45.97
2018-09-05T08:28:53.891Z,43.73
2018-09-05T08:32:27.068Z,47.13
2018-09-05T08:36:00.578Z,49.17
2018-09-05T08:39:33.517Z,51.83
2018-09-05T08:43:06.783Z,50.90
2018-09-05T08:46:39.988Z,49.20
2018-09-05T08:50:13.224Z,47.70
2018-09-05T08:53:46.804Z,50.90
2018-09-05T08:57:20.049Z,45.30
2018-09-05T09:00:53.260Z,41.00
2018-09-05T09:04:26.551Z,52.47
2018-09-05T09:07:59.779Z,50.53
2018-09-05T09:11:33.045Z,49.63
2018-09-05T09:15:06.257Z,50.97
2018-09-05T09:18:39.483Z,51.33
2018-09-05T09:22:12.729Z,47.50
2018-09-05T09:25:45.987Z,49.70
2018-09-05T09:29:19.192Z,48.30
2018-09-05T09:32:52.433Z,52.50
2018-09-05T09:36:25.657Z,53.37
2018-09-05T09:39:58.883Z,50.40
2018-09-05T09:43:32.113Z,51.17
2018-09-05T09:47:05.355Z,47.10
2018-09-05T09:50:38.606Z,48.40
2018-09-05T09:54:11.837Z,47.60
2018-09-05T09:57:45.056Z,46.40
2018-09-05T10:01:23.813Z,46.40
2018-09-05T10:05:02.504Z,48.90
2018-09-05T10:08:40.979Z,48.43
2018-09-05T10:12:19.767Z,45.37
2018-09-05T10:15:58.356Z,43.17
2018-09-05T10:19:31.578Z,40.33
2018-09-05T10:23:04.790Z,38.93
2018-09-05T10:26:38.037Z,40.40
2018-09-05T10:30:11.252Z,39.53
2018-09-05T10:33:44.487Z,35.93
2018-09-05T10:37:17.732Z,41.67
2018-09-05T10:40:50.957Z,36.57
2018-09-05T10:44:24.248Z,34.83
2018-09-05T10:47:57.398Z,34.57
2018-09-05T10:51:36.155Z,33.63
2018-09-05T10:55:09.353Z,32.10
2018-09-05T10:58:42.599Z,29.93
2018-09-05T11:02:15.818Z,26.30
2018-09-05T11:05:49.039Z,28.00
2018-09-05T11:09:22.259Z,28.90
2018-09-05T11:12:55.496Z,30.60
2018-09-05T11:16:28.712Z,30.77
2018-09-05T11:20:01.925Z,30.37
2018-09-05T11:23:35.618Z,27.13
2018-09-05T11:27:08.843Z,28.30
2018-09-05T11:30:42.071Z,25.47
2018-09-05T11:34:15.283Z,25.83
2018-09-05T11:37:48.527Z,25.77
2018-09-05T11:41:22.111Z,23.77
2018-09-05T11:44:55.330Z,24.73
2018-09-05T11:48:28.556Z,23.70
2018-09-05T11:52:01.819Z,23.20
2018-09-05T11:55:35.047Z,24.00
2018-09-05T11:59:08.471Z,25.30
2018-09-05T12:02:41.706Z,23.80
2018-09-05T12:06:14.931Z,23.53
2018-09-05T12:09:48.160Z,21.50
2018-09-05T12:13:21.438Z,19.90
2018-09-05T12:16:54.672Z,23.23
2018-09-05T12:20:27.892Z,22.20
2018-09-05T12:24:01.108Z,21.57
2018-09-05T12:27:34.343Z,21.40
2018-09-05T12:31:07.563Z,20.70
2018-09-05T12:34:40.774Z,20.27
2018-09-05T12:38:14.025Z,20.70
2018-09-05T12:41:47.229Z,20.40
2018-09-05T12:45:20.458Z,19.33
2018-09-05T12:48:53.680Z,18.13
2018-09-05T12:52:26.909Z,18.30
2018-09-05T12:56:00.129Z,18.30
2018-09-05T12:59:33.364Z,17.17
2018-09-05T13:03:06.590Z,16.47
2018-09-05T13:06:39.815Z,17.87
2018-09-05T13:10:13.034Z,17.90
2018-09-05T13:13:46.566Z,17.00
2018-09-05T13:17:19.821Z,16.77
2018-09-05T13:20:53.046Z,17.60
2018-09-05T13:24:26.268Z,17.30
2018-09-05T13:28:31.167Z,17.93
2018-09-05T13:32:04.382Z,16.50
2018-09-05T13:35:37.601Z,16.37
2018-09-05T13:39:11.736Z,16.80
2018-09-05T13:42:44.954Z,16.90
2018-09-05T13:46:18.164Z,16.00
2018-09-05T13:49:51.375Z,15.77
2018-09-05T13:53:24.584Z,16.30
2018-09-05T13:56:58.471Z,15.80
2018-09-05T14:00:31.699Z,16.53
2018-09-05T14:04:04.958Z,15.50
2018-09-05T14:07:38.224Z,17.50
2018-09-05T14:11:11.443Z,16.57
2018-09-05T14:14:44.671Z,14.70
2018-09-05T14:18:17.875Z,15.20
2018-09-05T14:21:51.139Z,14.93
2018-09-05T14:25:24.436Z,17.10
2018-09-05T14:28:57.663Z,16.10
2018-09-05T14:32:30.895Z,15.77
2018-09-05T14:36:04.118Z,15.93
2018-09-05T14:39:37.371Z,16.10
2018-09-05T14:43:10.593Z,15.53
2018-09-05T14:46:43.814Z,16.47
2018-09-05T14:50:17.058Z,13.60
2018-09-05T14:53:50.296Z,15.63
2018-09-05T14:57:23.690Z,15.63
2018-09-05T15:00:56.924Z,14.67
2018-09-05T15:04:30.153Z,14.03
2018-09-05T15:08:03.363Z,14.57
2018-09-05T15:11:36.583Z,15.37
2018-09-05T15:15:09.807Z,16.87
2018-09-05T15:18:43.467Z,17.90
2018-09-05T15:22:16.678Z,15.40
2018-09-05T15:25:49.896Z,14.77
2018-09-05T15:29:23.120Z,17.30
2018-09-05T15:32:56.400Z,15.17
2018-09-05T15:36:29.668Z,14.50
2018-09-05T15:40:02.920Z,15.30
2018-09-05T15:43:36.148Z,12.70
2018-09-05T15:47:09.427Z,14.83
2018-09-05T15:50:43.316Z,16.17
2018-09-05T15:54:16.541Z,16.20
2018-09-05T15:57:49.760Z,14.83
2018-09-05T16:01:22.963Z,16.07
2018-09-05T16:04:56.215Z,15.63
2018-09-05T16:08:29.480Z,15.57
2018-09-05T16:12:02.691Z,15.63
2018-09-05T16:15:36.061Z,15.33
2018-09-05T16:19:09.176Z,16.37
2018-09-05T16:22:42.465Z,15.47
2018-09-05T16:26:15.676Z,14.70
2018-09-05T16:29:49.019Z,16.43
2018-09-05T16:33:22.200Z,16.63
2018-09-05T16:36:55.408Z,15.90
2018-09-05T16:40:28.702Z,15.20
2018-09-05T16:44:01.926Z,16.10
2018-09-05T16:47:35.170Z,15.93
2018-09-05T16:51:08.855Z,15.07
2018-09-05T16:54:42.127Z,15.97
2018-09-05T16:58:15.351Z,16.20
2018-09-05T17:01:48.579Z,15.27
2018-09-05T17:05:21.786Z,15.40
2018-09-05T17:08:55.045Z,16.13
2018-09-05T17:12:28.267Z,15.40
2018-09-05T17:16:01.471Z,16.40
2018-09-05T17:19:34.679Z,16.10
2018-09-05T17:23:07.912Z,16.10
2018-09-05T17:26:41.141Z,17.03
2018-09-05T17:30:14.346Z,18.30
2018-09-05T17:33:47.564Z,16.93
2018-09-05T17:37:20.908Z,16.17
2018-09-05T17:40:54.111Z,16.97
2018-09-05T17:44:27.345Z,17.90
2018-09-05T17:48:00.547Z,19.00
2018-09-05T17:51:33.757Z,18.20
2018-09-05T17:55:06.951Z,19.50
2018-09-05T17:58:40.205Z,18.60
2018-09-05T18:02:13.403Z,17.70
2018-09-05T18:05:46.605Z,17.27
2018-09-05T18:09:19.821Z,20.77
2018-09-05T18:12:53.031Z,19.50
2018-09-05T18:16:26.255Z,21.90
2018-09-05T18:19:59.460Z,20.90
2018-09-05T18:23:32.682Z,20.60
2018-09-05T18:27:05.943Z,20.03
2018-09-05T18:30:39.171Z,22.50
2018-09-05T18:34:12.363Z,21.70
2018-09-05T18:37:45.563Z,23.20
2018-09-05T18:41:18.784Z,23.10
2018-09-05T18:44:52.011Z,23.03
2018-09-05T18:48:25.214Z,23.83
2018-09-05T18:51:58.428Z,24.63
2018-09-05T18:55:31.726Z,23.20
2018-09-05T18:59:04.999Z,21.97
2018-09-05T19:02:38.218Z,22.47
2018-09-05T19:06:11.968Z,22.97
2018-09-05T19:09:45.176Z,24.23
2018-09-05T19:13:18.443Z,23.57
2018-09-05T19:16:51.760Z,25.37
2018-09-05T19:20:25.113Z,25.90
2018-09-05T19:23:58.384Z,25.17
2018-09-05T19:27:31.627Z,26.00
2018-09-05T19:31:05.037Z,26.80
2018-09-05T19:34:38.248Z,26.23
2018-09-05T19:38:11.491Z,26.40
2018-09-05T19:41:44.791Z,27.47
2018-09-05T19:45:18.033Z,29.30
2018-09-05T19:48:51.330Z,27.27
2018-09-05T19:52:24.544Z,28.83
2018-09-05T19:55:57.769Z,26.37
2018-09-05T19:59:30.974Z,26.00
2018-09-05T20:03:05.656Z,27.17
2018-09-05T20:06:38.898Z,25.33
2018-09-05T20:10:12.101Z,26.23
2018-09-05T20:13:45.311Z,28.00
2018-09-05T20:17:18.880Z,27.77
2018-09-05T20:20:52.634Z,27.90
2018-09-05T20:24:25.851Z,26.23
2018-09-05T20:27:59.070Z,28.20
2018-09-05T20:31:32.286Z,29.10
2018-09-05T20:35:05.770Z,30.10
2018-09-05T20:38:39.056Z,30.70
2018-09-05T20:42:12.986Z,29.90
2018-09-05T20:45:46.803Z,29.10
2018-09-05T20:49:20.147Z,28.50
2018-09-05T20:52:53.407Z,26.03
2018-09-05T20:56:27.438Z,30.27
2018-09-05T21:00:01.679Z,31.37
2018-09-05T21:03:35.091Z,33.77
2018-09-05T21:07:08.299Z,32.83
2018-09-05T21:10:41.593Z,28.67
2018-09-05T21:14:14.824Z,32.23
2018-09-05T21:17:48.139Z,31.93
2018-09-05T21:21:21.352Z,34.13
2018-09-05T21:24:54.615Z,32.13
2018-09-05T21:28:27.834Z,33.47
2018-09-05T21:32:01.051Z,32.73
2018-09-05T21:35:34.296Z,32.13
2018-09-05T21:39:08.826Z,32.53
2018-09-05T21:42:41.947Z,33.00
2018-09-05T21:46:15.142Z,27.53
2018-09-05T21:49:48.351Z,32.53
2018-09-05T21:53:21.567Z,31.50
2018-09-05T21:56:54.778Z,34.40
2018-09-05T22:00:28.003Z,37.97
2018-09-05T22:04:01.240Z,37.93
2018-09-05T22:07:34.428Z,36.47
2018-09-05T22:11:13.044Z,37.10
2018-09-05T22:14:46.255Z,36.80
2018-09-05T22:18:19.467Z,35.47
2018-09-05T22:21:52.659Z,33.93
2018-09-05T22:25:25.852Z,35.60
2018-09-05T22:28:59.060Z,35.13
2018-09-05T22:32:32.242Z,35.47
2018-09-05T22:36:05.820Z,35.93
2018-09-05T22:39:39.039Z,35.30
2018-09-05T22:43:23.635Z,37.63
2018-09-05T22:47:08.326Z,36.50
2018-09-05T22:52:00.562Z,33.27
2018-09-05T22:56:19.612Z,35.53
2018-09-05T23:01:06.564Z,35.10
2018-09-05T23:04:51.407Z,35.50
2018-09-05T23:08:32.664Z,32.57
2018-09-05T23:12:30.332Z,31.50
2018-09-05T23:16:14.966Z,33.13
2018-09-05T23:22:07.488Z,30.73
2018-09-05T23:25:40.717Z,31.90
2018-09-05T23:29:13.927Z,31.73
2018-09-05T23:32:47.149Z,33.37
2018-09-05T23:36:20.776Z,32.10
2018-09-05T23:39:53.998Z,31.87
2018-09-05T23:43:27.253Z,31.60
2018-09-05T23:47:00.485Z,27.83
2018-09-05T23:50:33.726Z,28.60
2018-09-05T23:54:06.954Z,30.50
2018-09-05T23:57:40.185Z,29.20
